createdAt,value
2022-09-30T00:02:37.141Z,3.43
2022-09-30T00:05:06.046Z,3.07
2022-09-30T00:07:34.307Z,3.50
2022-09-30T00:10:02.801Z,3.30
2022-09-30T00:12:31.148Z,3.43
2022-09-30T00:15:00.906Z,3.67
2022-09-30T00:17:29.577Z,3.60
2022-09-30T00:19:57.880Z,3.30
2022-09-30T00:22:26.272Z,3.60
2022-09-30T00:24:54.532Z,3.63
2022-09-30T00:27:23.072Z,3.10
2022-09-30T00:29:51.339Z,3.30
2022-09-30T00:32:21.275Z,3.07
2022-09-30T00:34:49.503Z,3.73
2022-09-30T00:37:17.756Z,3.60
2022-09-30T00:40:00.897Z,3.10
2022-09-30T00:42:29.996Z,3.63
2022-09-30T00:45:06.009Z,3.60
2022-09-30T00:47:49.849Z,3.57
2022-09-30T00:50:27.219Z,3.63
2022-09-30T00:53:00.106Z,3.80
2022-09-30T00:55:34.494Z,3.90
2022-09-30T00:58:05.040Z,3.40
2022-09-30T01:00:33.476Z,4.10
2022-09-30T01:03:03.439Z,3.53
2022-09-30T01:05:34.599Z,4.40
2022-09-30T01:08:06.396Z,4.60
2022-09-30T01:10:34.907Z,4.30
2022-09-30T01:13:03.218Z,4.27
2022-09-30T01:15:45.806Z,4.87
2022-09-30T01:18:23.773Z,4.10
2022-09-30T01:21:12.121Z,4.50
2022-09-30T01:24:11.998Z,4.10
2022-09-30T01:27:22.120Z,4.10
2022-09-30T01:30:15.968Z,4.30
2022-09-30T01:33:12.911Z,3.93
2022-09-30T01:35:57.701Z,3.53
2022-09-30T01:38:29.475Z,3.20
2022-09-30T01:41:06.702Z,4.07
2022-09-30T01:43:46.128Z,3.43
2022-09-30T01:46:22.362Z,3.50
2022-09-30T01:49:00.986Z,3.77
2022-09-30T01:51:36.100Z,3.43
2022-09-30T01:54:08.017Z,3.30
2022-09-30T01:56:41.467Z,4.00
2022-09-30T01:59:13.703Z,3.27
2022-09-30T02:01:49.251Z,3.50
2022-09-30T02:04:24.247Z,3.63
2022-09-30T02:06:57.418Z,3.37
2022-09-30T02:09:30.600Z,3.47
2022-09-30T02:12:04.728Z,3.17
2022-09-30T02:14:37.500Z,3.40
2022-09-30T02:17:24.288Z,3.80
2022-09-30T02:19:58.996Z,3.67
2022-09-30T02:22:32.673Z,3.70
2022-09-30T02:25:04.913Z,3.80
2022-09-30T02:27:50.671Z,3.33
2022-09-30T02:30:25.974Z,3.97
2022-09-30T02:32:57.662Z,3.47
2022-09-30T02:35:31.628Z,3.27
2022-09-30T02:38:05.703Z,3.77
2022-09-30T02:40:53.412Z,3.63
2022-09-30T02:43:22.431Z,3.43
2022-09-30T02:46:04.392Z,3.40
2022-09-30T02:48:43.057Z,3.20
2022-09-30T02:51:17.904Z,3.67
2022-09-30T02:53:53.279Z,3.60
2022-09-30T02:56:27.982Z,3.73
2022-09-30T02:58:58.021Z,3.40
2022-09-30T03:01:26.943Z,3.67
2022-09-30T03:03:58.050Z,3.90
2022-09-30T03:06:28.081Z,3.73
2022-09-30T03:08:56.357Z,3.40
2022-09-30T03:11:26.826Z,3.20
2022-09-30T03:14:19.093Z,3.20
2022-09-30T03:17:19.808Z,3.30
2022-09-30T03:20:10.151Z,4.20
2022-09-30T03:23:01.823Z,3.83
2022-09-30T03:25:37.457Z,3.43
2022-09-30T03:28:20.607Z,3.27
2022-09-30T03:30:56.849Z,3.30
2022-09-30T03:33:31.332Z,3.97
2022-09-30T03:36:03.481Z,3.90
2022-09-30T03:38:41.857Z,3.80
2022-09-30T03:41:29.425Z,3.43
2022-09-30T03:44:03.256Z,3.70
2022-09-30T03:46:35.866Z,3.83
2022-09-30T03:49:09.306Z,3.70
2022-09-30T03:51:39.798Z,3.47
2022-09-30T03:54:24.817Z,3.87
2022-09-30T03:56:53.075Z,3.83
2022-09-30T03:59:24.293Z,3.70
2022-09-30T04:01:53.620Z,3.50
2022-09-30T04:04:22.552Z,3.83
2022-09-30T04:06:52.803Z,3.60
2022-09-30T04:09:21.760Z,3.53
2022-09-30T04:11:52.868Z,3.50
2022-09-30T04:14:21.521Z,3.73
2022-09-30T04:16:53.929Z,3.90
2022-09-30T04:19:22.675Z,3.87
2022-09-30T04:21:53.067Z,3.53
2022-09-30T04:24:22.279Z,3.93
2022-09-30T04:26:52.884Z,3.53
2022-09-30T04:29:21.320Z,3.90
2022-09-30T04:31:49.740Z,3.77
2022-09-30T04:34:18.110Z,3.90
2022-09-30T04:36:46.551Z,3.97
2022-09-30T04:39:14.806Z,3.50
2022-09-30T04:41:43.234Z,3.43
2022-09-30T04:44:13.715Z,3.10
2022-09-30T04:46:42.842Z,3.93
2022-09-30T04:49:11.177Z,4.07
2022-09-30T04:51:43.875Z,5.13
2022-09-30T04:54:12.348Z,4.80
2022-09-30T04:56:40.777Z,4.83
2022-09-30T04:59:09.089Z,4.50
2022-09-30T05:01:39.278Z,4.10
2022-09-30T05:04:08.236Z,4.20
2022-09-30T05:06:36.784Z,4.03
2022-09-30T05:09:20.214Z,4.20
2022-09-30T05:11:53.607Z,4.10
2022-09-30T05:14:21.897Z,4.10
2022-09-30T05:16:51.897Z,4.67
2022-09-30T05:19:20.382Z,4.60
2022-09-30T05:21:48.825Z,4.70
2022-09-30T05:24:18.504Z,4.33
2022-09-30T05:26:46.761Z,4.17
2022-09-30T05:29:15.097Z,4.67
2022-09-30T05:31:43.510Z,4.53
2022-09-30T05:34:13.167Z,4.50
2022-09-30T05:36:41.414Z,4.10
2022-09-30T05:39:10.236Z,4.30
2022-09-30T05:41:38.659Z,3.97
2022-09-30T05:44:09.254Z,3.80
2022-09-30T05:46:57.773Z,4.20
2022-09-30T05:49:43.451Z,3.80
2022-09-30T05:52:19.600Z,3.73
2022-09-30T05:55:07.090Z,3.63
2022-09-30T05:57:46.232Z,3.57
2022-09-30T06:00:32.655Z,3.50
2022-09-30T06:03:21.692Z,3.70
2022-09-30T06:06:14.159Z,4.13
2022-09-30T06:09:36.906Z,4.63
2022-09-30T06:12:07.353Z,4.13
2022-09-30T06:14:47.156Z,4.03
2022-09-30T06:17:22.623Z,4.13
2022-09-30T06:19:54.259Z,4.30
2022-09-30T06:22:29.907Z,3.83
2022-09-30T06:25:11.354Z,4.30
2022-09-30T06:27:49.940Z,4.43
2022-09-30T06:30:24.139Z,4.50
2022-09-30T06:33:03.401Z,4.93
2022-09-30T06:35:33.625Z,4.23
2022-09-30T06:38:13.406Z,3.90
2022-09-30T06:41:01.703Z,3.60
2022-09-30T06:43:40.412Z,3.80
2022-09-30T06:46:17.648Z,4.20
2022-09-30T06:49:07.231Z,4.57
2022-09-30T06:51:39.634Z,4.40
2022-09-30T06:54:19.401Z,4.47
2022-09-30T06:56:48.438Z,4.83
2022-09-30T06:59:17.198Z,4.53
2022-09-30T07:01:49.168Z,4.63
2022-09-30T07:04:17.900Z,5.17
2022-09-30T07:06:46.433Z,4.57
2022-09-30T07:09:18.184Z,4.23
2022-09-30T07:12:01.535Z,4.80
2022-09-30T07:14:31.406Z,4.50
2022-09-30T07:17:13.488Z,4.90
2022-09-30T07:19:42.041Z,4.77
2022-09-30T07:22:29.855Z,4.67
2022-09-30T07:25:00.634Z,5.20
2022-09-30T07:27:31.949Z,4.63
2022-09-30T07:30:27.001Z,4.90
2022-09-30T07:32:55.959Z,4.07
2022-09-30T07:35:38.793Z,4.23
2022-09-30T07:38:07.246Z,3.67
2022-09-30T07:40:37.217Z,4.00
2022-09-30T07:43:05.771Z,3.57
2022-09-30T07:45:41.419Z,3.80
2022-09-30T07:48:30.033Z,3.47
2022-09-30T07:50:58.785Z,3.03
2022-09-30T07:54:03.773Z,3.40
2022-09-30T07:56:51.571Z,3.27
2022-09-30T07:59:23.411Z,3.33
2022-09-30T08:01:58.665Z,3.30
2022-09-30T08:04:28.383Z,3.47
2022-09-30T08:06:59.349Z,3.27
2022-09-30T08:09:29.997Z,3.57
2022-09-30T08:12:00.613Z,3.43
2022-09-30T08:14:31.898Z,3.40
2022-09-30T08:17:02.906Z,3.20
2022-09-30T08:19:33.661Z,3.33
2022-09-30T08:22:16.410Z,3.80
2022-09-30T08:24:44.965Z,3.60
2022-09-30T08:27:15.340Z,3.90
2022-09-30T08:29:55.057Z,4.13
2022-09-30T08:32:24.517Z,3.97
2022-09-30T08:34:52.924Z,3.70
2022-09-30T08:37:21.405Z,3.70
2022-09-30T08:39:49.928Z,3.97
2022-09-30T08:42:49.154Z,3.53
2022-09-30T08:45:32.502Z,3.30
2022-09-30T08:51:03.583Z,3.27
2022-09-30T08:53:35.338Z,2.97
2022-09-30T08:56:05.717Z,3.30
2022-09-30T08:58:38.965Z,2.80
2022-09-30T09:01:16.945Z,2.80
2022-09-30T09:03:46.333Z,2.40
2022-09-30T09:06:23.423Z,2.60
2022-09-30T09:09:11.400Z,2.45
2022-09-30T09:12:01.407Z,2.20
2022-09-30T09:14:53.061Z,2.17
2022-09-30T09:17:40.328Z,2.20
2022-09-30T09:20:16.091Z,2.47
2022-09-30T09:22:48.929Z,2.10
2022-09-30T09:25:20.213Z,2.40
2022-09-30T09:27:54.470Z,2.42
2022-09-30T09:30:26.401Z,2.70
2022-09-30T09:32:57.405Z,2.95
2022-09-30T09:35:48.964Z,2.40
2022-09-30T09:38:30.587Z,2.33
2022-09-30T09:41:10.943Z,2.53
2022-09-30T09:43:51.439Z,2.00
2022-09-30T09:46:26.509Z,2.60
2022-09-30T09:49:41.556Z,2.40
2022-09-30T09:52:54.854Z,2.30
2022-09-30T09:55:24.585Z,1.90
2022-09-30T09:58:07.465Z,2.23
2022-09-30T10:00:53.644Z,1.80
2022-09-30T10:03:26.404Z,1.83
2022-09-30T10:06:05.580Z,1.70
2022-09-30T10:08:36.404Z,1.67
2022-09-30T10:11:07.330Z,1.77
2022-09-30T10:13:44.736Z,1.60
2022-09-30T10:16:29.875Z,1.47
2022-09-30T10:19:02.402Z,1.00
2022-09-30T10:21:32.588Z,0.90
2022-09-30T10:24:21.244Z,0.77
2022-09-30T10:27:13.808Z,0.70
2022-09-30T10:29:49.224Z,0.90
2022-09-30T10:32:17.852Z,0.80
2022-09-30T10:34:48.458Z,1.00
2022-09-30T10:37:20.922Z,1.10
2022-09-30T10:39:57.540Z,0.80
2022-09-30T10:42:28.337Z,0.70
2022-09-30T10:44:59.269Z,0.93
2022-09-30T10:48:26.267Z,0.57
2022-09-30T10:50:58.683Z,0.70
2022-09-30T10:53:32.314Z,0.60
2022-09-30T10:56:01.935Z,0.83
2022-09-30T10:58:42.867Z,0.90
2022-09-30T11:01:21.498Z,1.00
2022-09-30T11:03:59.598Z,0.83
2022-09-30T11:06:37.558Z,0.90
2022-09-30T11:09:11.154Z,0.87
2022-09-30T11:11:44.693Z,0.90
2022-09-30T11:14:30.102Z,1.03
2022-09-30T11:17:10.442Z,1.10
2022-09-30T11:19:48.510Z,1.20
2022-09-30T11:22:30.940Z,0.70
2022-09-30T11:24:59.886Z,0.90
2022-09-30T11:27:46.300Z,1.10
2022-09-30T11:30:19.774Z,1.10
2022-09-30T11:33:01.938Z,1.10
2022-09-30T11:35:43.502Z,1.00
2022-09-30T11:38:30.286Z,1.10
2022-09-30T11:41:07.014Z,1.20
2022-09-30T11:43:47.100Z,1.20
2022-09-30T11:46:34.139Z,0.97
2022-09-30T11:49:28.260Z,1.10
2022-09-30T11:52:10.401Z,1.30
2022-09-30T11:55:06.561Z,1.20
2022-09-30T11:57:41.626Z,1.20
2022-09-30T12:00:17.299Z,1.30
2022-09-30T12:02:48.919Z,1.30
2022-09-30T12:05:21.496Z,1.10
2022-09-30T12:07:53.532Z,1.23
2022-09-30T12:10:27.574Z,1.10
2022-09-30T12:13:00.105Z,1.00
2022-09-30T12:15:29.543Z,1.10
2022-09-30T12:18:03.146Z,1.20
2022-09-30T12:20:35.191Z,0.97
2022-09-30T12:23:12.525Z,0.97
2022-09-30T12:25:47.605Z,0.80
2022-09-30T12:28:42.778Z,0.70
2022-09-30T12:31:33.010Z,0.70
2022-09-30T12:34:18.374Z,1.33
2022-09-30T12:37:22.190Z,1.00
2022-09-30T12:40:24.261Z,0.73
2022-09-30T12:43:34.408Z,0.80
2022-09-30T12:46:32.561Z,0.50
2022-09-30T12:49:10.439Z,0.80
2022-09-30T12:51:44.916Z,0.70
2022-09-30T12:54:17.586Z,0.70
2022-09-30T12:56:48.435Z,0.90
2022-09-30T12:59:25.164Z,1.03
2022-09-30T13:01:54.365Z,1.10
2022-09-30T13:04:42.997Z,1.17
2022-09-30T13:07:32.998Z,1.20
2022-09-30T13:10:30.612Z,1.20
2022-09-30T13:13:23.884Z,1.20
2022-09-30T13:15:56.233Z,1.10
2022-09-30T13:19:02.264Z,1.40
2022-09-30T13:21:32.249Z,1.50
2022-09-30T13:24:01.874Z,1.40
2022-09-30T13:26:48.586Z,1.30
2022-09-30T13:29:40.100Z,1.00
2022-09-30T13:32:11.611Z,1.13
2022-09-30T13:34:59.577Z,1.27
2022-09-30T13:37:40.602Z,1.20
2022-09-30T13:40:49.687Z,1.10
2022-09-30T13:43:22.106Z,1.20
2022-09-30T13:45:53.183Z,1.17
2022-09-30T13:48:51.377Z,1.33
2022-09-30T13:51:23.201Z,1.37
2022-09-30T13:53:54.336Z,1.50
2022-09-30T13:56:30.903Z,1.47
2022-09-30T13:59:23.393Z,1.47
2022-09-30T14:02:30.209Z,1.47
2022-09-30T14:05:35.392Z,1.33
2022-09-30T14:08:25.578Z,1.60
2022-09-30T14:11:13.162Z,1.33
2022-09-30T14:13:51.223Z,1.43
2022-09-30T14:16:56.197Z,1.50
2022-09-30T14:19:59.052Z,1.60
2022-09-30T14:22:31.324Z,1.50
2022-09-30T14:25:00.108Z,3.20
2022-09-30T14:27:53.749Z,1.60
2022-09-30T14:30:24.587Z,1.50
2022-09-30T14:32:56.806Z,1.20
2022-09-30T14:35:28.602Z,1.17
2022-09-30T14:38:01.873Z,1.30
2022-09-30T14:40:33.217Z,1.20
2022-09-30T14:43:07.279Z,1.10
2022-09-30T14:45:39.622Z,1.07
2022-09-30T14:48:14.006Z,1.00
2022-09-30T14:50:48.969Z,0.90
2022-09-30T14:53:30.589Z,1.20
2022-09-30T14:55:59.295Z,1.10
2022-09-30T14:58:30.797Z,1.20
2022-09-30T15:01:07.719Z,1.47
2022-09-30T15:03:39.601Z,1.53
2022-09-30T15:06:50.996Z,1.10
2022-09-30T15:09:25.223Z,1.30
2022-09-30T15:11:54.099Z,1.60
2022-09-30T15:14:24.316Z,1.53
2022-09-30T15:16:54.741Z,1.73
2022-09-30T15:19:26.072Z,1.70
2022-09-30T15:21:56.352Z,1.57
2022-09-30T15:24:27.814Z,1.40
2022-09-30T15:26:57.165Z,1.50
2022-09-30T15:29:25.844Z,1.70
2022-09-30T15:32:15.270Z,1.60
2022-09-30T15:34:46.114Z,1.40
2022-09-30T15:37:24.033Z,1.73
2022-09-30T15:40:11.745Z,1.77
2022-09-30T15:42:43.848Z,1.93
2022-09-30T15:45:34.988Z,1.80
2022-09-30T15:48:07.105Z,1.50
2022-09-30T15:50:41.240Z,4.10
2022-09-30T15:53:22.690Z,2.43
2022-09-30T15:55:55.755Z,2.90
2022-09-30T15:58:38.985Z,2.10
2022-09-30T16:01:16.839Z,1.70
2022-09-30T16:03:54.337Z,1.60
2022-09-30T16:06:29.201Z,2.00
2022-09-30T16:09:01.362Z,3.73
2022-09-30T16:11:34.930Z,2.53
2022-09-30T16:14:07.643Z,4.63
2022-09-30T16:16:39.301Z,1.93
2022-09-30T16:19:19.014Z,2.00
2022-09-30T16:21:50.904Z,1.70
2022-09-30T16:24:42.403Z,2.00
2022-09-30T16:27:33.399Z,1.70
2022-09-30T16:30:02.429Z,2.60
2022-09-30T16:32:38.421Z,2.20
2022-09-30T16:35:08.548Z,1.93
2022-09-30T16:37:37.191Z,2.07
2022-09-30T16:40:17.792Z,2.57
2022-09-30T16:42:47.675Z,3.23
2022-09-30T16:45:16.831Z,2.50
2022-09-30T16:47:46.080Z,2.90
2022-09-30T16:50:22.117Z,3.80
2022-09-30T16:52:50.497Z,2.47
2022-09-30T16:55:18.895Z,2.60
2022-09-30T16:57:50.309Z,2.83
2022-09-30T17:00:19.273Z,2.60
2022-09-30T17:02:48.977Z,2.50
2022-09-30T17:05:19.828Z,11.27
2022-09-30T17:07:52.043Z,10.73
2022-09-30T17:10:23.314Z,4.20
2022-09-30T17:12:53.513Z,3.20
2022-09-30T17:15:22.112Z,3.00
2022-09-30T17:17:52.761Z,3.10
2022-09-30T17:20:21.433Z,3.13
2022-09-30T17:22:50.152Z,3.40
2022-09-30T17:25:19.230Z,7.60
2022-09-30T17:27:49.999Z,3.80
2022-09-30T17:30:21.367Z,5.10
2022-09-30T17:32:50.025Z,6.40
2022-09-30T17:35:18.681Z,9.80
2022-09-30T17:37:47.927Z,7.63
2022-09-30T17:40:34.553Z,16.93
2022-09-30T17:43:10.661Z,6.53
2022-09-30T17:45:43.163Z,9.43
2022-09-30T17:49:02.474Z,4.90
2022-09-30T17:51:33.129Z,5.13
2022-09-30T17:54:02.031Z,4.10
2022-09-30T17:56:30.515Z,7.97
2022-09-30T17:59:01.993Z,6.33
2022-09-30T18:01:34.103Z,11.80
2022-09-30T18:04:03.305Z,17.13
2022-09-30T18:06:32.422Z,3.43
2022-09-30T18:09:04.345Z,3.27
2022-09-30T18:11:34.746Z,4.50
2022-09-30T18:14:06.136Z,4.10
2022-09-30T18:16:36.054Z,3.43
2022-09-30T18:19:06.543Z,2.80
2022-09-30T18:21:39.038Z,2.50
2022-09-30T18:24:08.198Z,2.40
2022-09-30T18:26:36.555Z,2.30
2022-09-30T18:29:06.284Z,1.90
2022-09-30T18:31:37.991Z,2.23
2022-09-30T18:34:20.317Z,2.30
2022-09-30T18:36:49.349Z,3.00
2022-09-30T18:39:18.137Z,2.30
2022-09-30T18:42:01.554Z,2.37
2022-09-30T18:44:40.180Z,2.60
2022-09-30T18:47:10.028Z,2.07
2022-09-30T18:49:38.706Z,2.03
2022-09-30T18:52:08.608Z,3.47
2022-09-30T18:54:37.211Z,3.53
2022-09-30T18:57:06.092Z,3.37
2022-09-30T18:59:36.097Z,2.57
2022-09-30T19:02:05.806Z,2.50
2022-09-30T19:04:36.858Z,2.80
2022-09-30T19:07:05.894Z,2.70
2022-09-30T19:09:40.999Z,2.77
2022-09-30T19:12:09.907Z,2.87
2022-09-30T19:14:38.352Z,2.97
2022-09-30T19:17:06.922Z,2.90
2022-09-30T19:19:38.993Z,3.60
2022-09-30T19:22:07.498Z,3.10
2022-09-30T19:24:35.895Z,3.57
2022-09-30T19:27:14.319Z,3.10
2022-09-30T19:29:42.688Z,2.73
2022-09-30T19:32:12.795Z,2.63
2022-09-30T19:37:27.739Z,3.00
2022-09-30T19:39:56.646Z,2.60
2022-09-30T19:42:28.052Z,2.47
2022-09-30T19:44:57.061Z,2.83
2022-09-30T19:47:25.436Z,2.57
2022-09-30T19:49:59.565Z,2.80
2022-09-30T19:52:28.200Z,2.77
2022-09-30T19:55:04.305Z,2.80
2022-09-30T19:57:37.138Z,3.60
2022-09-30T20:00:07.312Z,3.10
2022-09-30T20:02:37.859Z,2.80
2022-09-30T20:05:09.374Z,2.60
2022-09-30T20:07:37.972Z,2.00
2022-09-30T20:10:07.813Z,2.30
2022-09-30T20:12:36.912Z,2.40
2022-09-30T20:15:23.505Z,2.30
2022-09-30T20:17:51.894Z,2.37
2022-09-30T20:20:44.939Z,2.80
2022-09-30T20:23:13.417Z,3.53
2022-09-30T20:25:42.150Z,2.60
2022-09-30T20:28:10.778Z,2.43
2022-09-30T20:30:45.535Z,2.53
2022-09-30T20:33:16.396Z,3.03
2022-09-30T20:35:47.422Z,3.10
2022-09-30T20:38:17.391Z,2.73
2022-09-30T20:40:46.365Z,3.00
2022-09-30T20:43:14.821Z,3.50
2022-09-30T20:45:43.573Z,3.00
2022-09-30T20:48:24.617Z,2.77
2022-09-30T20:50:57.249Z,2.47
2022-09-30T20:53:25.728Z,2.40
2022-09-30T20:55:54.923Z,2.33
2022-09-30T20:58:23.319Z,2.73
2022-09-30T21:00:51.902Z,2.10
2022-09-30T21:03:21.505Z,2.70
2022-09-30T21:05:53.504Z,2.43
2022-09-30T21:08:23.422Z,2.70
2022-09-30T21:10:51.813Z,2.80
2022-09-30T21:13:20.267Z,2.33
2022-09-30T21:15:48.757Z,2.70
2022-09-30T21:18:17.529Z,2.60
2022-09-30T21:20:45.837Z,4.27
2022-09-30T21:23:17.264Z,3.87
2022-09-30T21:25:49.297Z,2.50
2022-09-30T21:28:17.707Z,3.67
2022-09-30T21:30:45.997Z,4.20
2022-09-30T21:33:14.305Z,2.17
2022-09-30T21:36:04.451Z,2.30
2022-09-30T21:38:35.565Z,2.70
2022-09-30T21:41:06.825Z,1.87
2022-09-30T21:43:37.052Z,1.53
2022-09-30T21:46:07.740Z,1.93
2022-09-30T21:48:37.249Z,2.47
2022-09-30T21:51:07.138Z,2.97
2022-09-30T21:53:35.652Z,2.10
2022-09-30T21:56:05.467Z,1.70
2022-09-30T21:58:34.721Z,1.80
2022-09-30T22:01:05.772Z,2.20
2022-09-30T22:03:37.780Z,2.90
2022-09-30T22:06:08.130Z,2.67
2022-09-30T22:08:40.055Z,2.00
2022-09-30T22:11:12.077Z,1.97
2022-09-30T22:13:41.578Z,1.63
2022-09-30T22:16:10.081Z,1.40
2022-09-30T22:18:38.567Z,1.20
2022-09-30T22:21:09.816Z,1.40
2022-09-30T22:23:38.122Z,1.53
2022-09-30T22:26:13.990Z,1.30
2022-09-30T22:28:42.254Z,1.30
2022-09-30T22:31:12.168Z,1.40
2022-09-30T22:33:58.210Z,1.50
2022-09-30T22:36:43.996Z,1.70
2022-09-30T22:39:12.242Z,1.37
2022-09-30T22:41:42.660Z,1.30
2022-09-30T22:44:11.197Z,1.40
2022-09-30T22:46:40.478Z,1.20
2022-09-30T22:49:08.815Z,1.00
2022-09-30T22:51:37.481Z,1.10
2022-09-30T22:54:06.265Z,1.17
2022-09-30T22:56:35.494Z,1.10
2022-09-30T22:59:06.451Z,1.00
2022-09-30T23:01:35.024Z,1.30
2022-09-30T23:04:03.657Z,1.33
2022-09-30T23:06:32.032Z,1.10
2022-09-30T23:09:00.694Z,1.20
2022-09-30T23:11:28.917Z,1.00
2022-09-30T23:13:59.246Z,1.03
2022-09-30T23:16:29.239Z,1.00
2022-09-30T23:18:58.290Z,0.90
2022-09-30T23:21:26.845Z,1.00
2022-09-30T23:23:55.294Z,0.90
2022-09-30T23:26:26.154Z,0.93
2022-09-30T23:28:58.069Z,1.30
2022-09-30T23:31:48.124Z,2.00
2022-09-30T23:34:18.488Z,1.90
2022-09-30T23:36:46.872Z,2.63
2022-09-30T23:39:18.434Z,1.60
2022-09-30T23:41:47.079Z,2.07
2022-09-30T23:44:17.801Z,1.20
2022-09-30T23:47:01.563Z,1.10
2022-09-30T23:49:35.226Z,1.07
2022-09-30T23:52:05.508Z,1.27
2022-09-30T23:54:35.328Z,1.43
2022-09-30T23:57:04.355Z,1.20
2022-09-30T23:59:33.630Z,2.00
